< Typhoon 197214 1972 Season Typhoon 197216 >
Typhoon 197215 (CORA)
General InformationTrack Information on Google Maps || Disaster Info.ResourceGoogle EarthGE AnimationAtom FeedGeoJSON
Detalied Best Track (Time Zone = UTC)
Year Month Day Hour Lat. Long. Pressure (hPa) Wind (kt) Class Image Chart
1972 8 24 00 16.9 117.7 1006 0 2 -- Chart
1972 8 24 06 17.4 117.5 1006 0 2 -- Chart
1972 8 24 12 17.9 117.3 1006 0 2 -- Chart
1972 8 24 18 18.3 117.0 1004 0 2 -- Chart
1972 8 25 00 18.7 116.7 1004 0 2 -- Chart
1972 8 25 06 18.8 116.4 1002 0 2 -- Chart
1972 8 25 12 18.8 116.0 996 0 9 -- Chart
1972 8 25 18 18.8 115.6 996 0 9 -- Chart
1972 8 26 00 18.8 115.0 990 0 9 -- Chart
1972 8 26 06 18.8 114.7 985 0 9 -- Chart
1972 8 26 12 18.7 114.3 980 0 9 -- Chart
1972 8 26 18 18.7 114.0 980 0 9 -- Chart
1972 8 27 00 18.7 113.7 975 0 9 -- Chart
1972 8 27 06 18.8 113.0 975 0 9 -- Chart
1972 8 27 12 18.9 112.5 975 0 9 -- Chart
1972 8 27 18 19.0 112.1 975 0 9 -- Chart
1972 8 28 00 19.1 111.5 975 0 9 -- Chart
1972 8 28 06 19.8 110.2 975 0 9 -- Chart
1972 8 28 12 20.2 108.6 980 0 9 -- Chart
1972 8 28 18 20.7 107.3 985 0 9 -- Chart
1972 8 29 00 21.4 104.7 1000 0 2 -- Chart
1972 8 29 06 22.0 103.1 1000 0 2 -- Chart
1972 8 29 12 21.0 101.1 1000 0 2 -- Chart
1972 8 29 18 20.0 100.0 1002 0 2 -- Chart
Japan Meteorological Agency Best Track Data | Correction Date : 1989-06-01
< Typhoon 197214 1972 Season Typhoon 197216 >

Help